createdAt,value
2023-07-10T00:00:39.355Z,72.36
2023-07-10T00:01:42.060Z,72.85
2023-07-10T00:02:45.645Z,72.44
2023-07-10T00:03:48.196Z,72.57
2023-07-10T00:04:50.445Z,71.89
2023-07-10T00:05:52.707Z,71.97
2023-07-10T00:06:56.077Z,72.36
2023-07-10T00:07:58.294Z,72.26
2023-07-10T00:09:00.533Z,72.22
2023-07-10T00:10:03.026Z,72.47
2023-07-10T00:11:21.062Z,72.68
2023-07-10T00:12:24.469Z,72.60
2023-07-10T00:13:26.826Z,72.58
2023-07-10T00:14:31.106Z,72.86
2023-07-10T00:15:33.628Z,72.93
2023-07-10T00:16:36.256Z,73.09
2023-07-10T00:17:39.710Z,72.53
2023-07-10T00:18:42.640Z,72.40
2023-07-10T00:19:45.529Z,72.49
2023-07-10T00:20:49.290Z,72.58
2023-07-10T00:21:52.605Z,72.62
2023-07-10T00:22:55.208Z,72.84
2023-07-10T00:23:57.436Z,72.74
2023-07-10T00:24:59.774Z,72.54
2023-07-10T00:26:07.341Z,72.76
2023-07-10T00:27:13.201Z,72.27
2023-07-10T00:28:20.601Z,72.67
2023-07-10T00:29:30.813Z,72.82
2023-07-10T00:30:33.278Z,73.11
2023-07-10T00:31:35.882Z,73.50
2023-07-10T00:32:38.431Z,73.31
2023-07-10T00:33:40.714Z,73.71
2023-07-10T00:34:43.080Z,73.58
2023-07-10T00:35:47.161Z,73.62
2023-07-10T00:36:52.421Z,73.42
2023-07-10T00:38:04.084Z,73.30
2023-07-10T00:39:28.646Z,72.82
2023-07-10T00:40:33.656Z,72.46
2023-07-10T00:41:38.113Z,72.45
2023-07-10T00:42:40.545Z,73.32
2023-07-10T00:43:46.549Z,72.87
2023-07-10T00:44:58.103Z,72.91
2023-07-10T00:46:05.474Z,73.26
2023-07-10T00:47:11.572Z,73.61
2023-07-10T00:48:23.871Z,73.98
2023-07-10T00:49:38.905Z,73.97
2023-07-10T00:50:47.119Z,74.00
2023-07-10T00:51:59.434Z,74.10
2023-07-10T00:53:04.905Z,74.27
2023-07-10T00:54:10.892Z,73.97
2023-07-10T00:55:23.116Z,74.40
2023-07-10T00:56:29.480Z,74.71
2023-07-10T00:57:36.436Z,74.89
2023-07-10T00:58:42.908Z,74.22
2023-07-10T00:59:46.818Z,74.46
2023-07-10T01:01:05.492Z,74.55
2023-07-10T01:02:14.499Z,74.60
2023-07-10T01:03:17.463Z,74.37
2023-07-10T01:04:20.411Z,74.61
2023-07-10T01:05:24.602Z,75.11
2023-07-10T01:06:33.233Z,75.00
2023-07-10T01:07:44.584Z,75.64
2023-07-10T01:08:56.387Z,75.57
2023-07-10T01:10:03.711Z,75.76
2023-07-10T01:11:06.629Z,75.98
2023-07-10T01:12:09.800Z,76.00
2023-07-10T01:13:12.211Z,76.10
2023-07-10T01:14:15.891Z,76.27
2023-07-10T01:15:18.722Z,76.66
2023-07-10T01:16:22.944Z,76.20
2023-07-10T01:17:26.426Z,75.97
2023-07-10T01:18:29.880Z,75.96
2023-07-10T01:19:34.598Z,76.23
2023-07-10T01:20:40.891Z,76.11
2023-07-10T01:21:43.622Z,75.94
2023-07-10T01:22:46.235Z,75.75
2023-07-10T01:23:48.579Z,75.92
2023-07-10T01:24:53.340Z,76.23
2023-07-10T01:25:59.458Z,76.26
2023-07-10T01:27:06.807Z,76.57
2023-07-10T01:28:12.860Z,76.71
2023-07-10T01:30:55.853Z,77.19
2023-07-10T01:31:59.934Z,77.31
2023-07-10T01:33:02.792Z,77.41
2023-07-10T01:34:07.705Z,77.57
2023-07-10T01:35:13.849Z,77.57
2023-07-10T01:36:19.873Z,77.58
2023-07-10T01:37:23.478Z,77.29
2023-07-10T01:38:38.682Z,77.72
2023-07-10T01:39:44.067Z,77.92
2023-07-10T01:40:50.205Z,78.34
2023-07-10T01:41:52.534Z,78.52
2023-07-10T01:42:59.637Z,78.34
2023-07-10T01:44:07.204Z,78.00
2023-07-10T01:45:14.655Z,78.18
2023-07-10T01:46:20.044Z,78.48
2023-07-10T01:47:22.547Z,79.01
2023-07-10T01:48:28.728Z,78.36
2023-07-10T01:49:34.647Z,77.93
2023-07-10T01:50:38.374Z,78.33
2023-07-10T01:51:42.362Z,78.65
2023-07-10T01:52:45.018Z,78.89
2023-07-10T01:53:47.613Z,78.89
2023-07-10T01:54:50.837Z,79.18
2023-07-10T01:55:53.587Z,79.48
2023-07-10T01:56:57.965Z,79.04
2023-07-10T01:58:00.421Z,79.04
2023-07-10T01:59:02.882Z,78.83
2023-07-10T02:00:07.218Z,79.04
2023-07-10T02:01:11.506Z,79.37
2023-07-10T02:02:13.647Z,78.99
2023-07-10T02:03:16.162Z,79.02
2023-07-10T02:04:20.679Z,79.32
2023-07-10T02:05:22.824Z,79.41
2023-07-10T02:06:27.429Z,79.56
2023-07-10T02:07:29.864Z,79.46
2023-07-10T02:08:33.168Z,79.45
2023-07-10T02:09:35.675Z,79.80
2023-07-10T02:10:44.224Z,79.89
2023-07-10T02:11:42.882Z,79.65
2023-07-10T02:12:45.221Z,79.33
2023-07-10T02:13:47.611Z,79.21
2023-07-10T02:14:50.096Z,79.23
2023-07-10T02:15:52.691Z,79.64
2023-07-10T02:16:55.426Z,79.92
2023-07-10T02:17:58.312Z,79.96
2023-07-10T02:19:01.143Z,79.92
2023-07-10T02:20:06.181Z,80.44
2023-07-10T02:21:09.047Z,80.73
2023-07-10T02:22:12.016Z,80.79
2023-07-10T02:23:15.608Z,80.77
2023-07-10T02:24:18.656Z,80.76
2023-07-10T02:25:21.163Z,81.17
2023-07-10T02:26:24.703Z,81.46
2023-07-10T02:27:27.253Z,81.42
2023-07-10T02:28:30.470Z,82.47
2023-07-10T02:29:32.960Z,82.86
2023-07-10T02:30:40.739Z,83.22
2023-07-10T02:31:43.532Z,83.16
2023-07-10T02:32:46.114Z,83.27
2023-07-10T02:33:49.187Z,83.75
2023-07-10T02:34:51.452Z,83.98
2023-07-10T02:35:53.776Z,84.15
2023-07-10T02:36:56.358Z,84.08
2023-07-10T02:37:58.847Z,84.11
2023-07-10T02:39:01.414Z,83.99
2023-07-10T02:40:05.960Z,83.85
2023-07-10T02:41:09.841Z,83.85
2023-07-10T02:42:12.479Z,83.99
2023-07-10T02:43:15.041Z,84.55
2023-07-10T02:44:17.349Z,84.89
2023-07-10T02:45:20.391Z,85.20
2023-07-10T02:46:23.546Z,86.21
2023-07-10T02:47:26.038Z,86.21
2023-07-10T02:48:28.781Z,86.15
2023-07-10T02:49:31.563Z,85.81
2023-07-10T02:50:34.340Z,85.53
2023-07-10T02:51:36.981Z,85.46
2023-07-10T02:52:39.563Z,85.44
2023-07-10T02:53:44.129Z,85.46
2023-07-10T02:54:46.530Z,85.90
2023-07-10T02:55:48.903Z,85.91
2023-07-10T02:56:51.295Z,85.72
2023-07-10T02:57:53.927Z,86.06
2023-07-10T02:58:56.184Z,86.60
2023-07-10T02:59:58.563Z,86.83
2023-07-10T03:01:02.869Z,86.63
2023-07-10T03:02:06.324Z,86.31
2023-07-10T03:03:08.711Z,86.73
2023-07-10T03:04:11.068Z,86.60
2023-07-10T03:05:14.479Z,86.54
2023-07-10T03:06:17.252Z,86.83
2023-07-10T03:07:19.631Z,87.29
2023-07-10T03:08:23.812Z,87.16
2023-07-10T03:09:26.735Z,87.15
2023-07-10T03:10:29.340Z,87.19
2023-07-10T03:11:31.798Z,87.23
2023-07-10T03:12:34.066Z,87.02
2023-07-10T03:13:37.404Z,86.84
2023-07-10T03:14:39.664Z,86.97
2023-07-10T03:15:42.518Z,86.58
2023-07-10T03:16:45.058Z,86.62
2023-07-10T03:17:47.546Z,86.74
2023-07-10T03:18:52.025Z,86.47
2023-07-10T03:19:54.708Z,86.09
2023-07-10T03:20:57.937Z,85.85
2023-07-10T03:22:01.710Z,85.97
2023-07-10T03:23:05.198Z,85.59
2023-07-10T03:24:07.556Z,85.77
2023-07-10T03:25:10.192Z,85.77
2023-07-10T03:26:12.834Z,85.45
2023-07-10T03:27:14.887Z,85.96
2023-07-10T03:28:17.134Z,86.09
2023-07-10T03:29:19.522Z,85.94
2023-07-10T03:30:22.493Z,85.77
2023-07-10T03:31:25.844Z,85.39
2023-07-10T03:32:28.323Z,85.59
2023-07-10T03:33:30.852Z,85.58
2023-07-10T03:34:33.187Z,85.75
2023-07-10T03:35:35.581Z,85.48
2023-07-10T03:36:38.446Z,85.04
2023-07-10T03:37:40.621Z,84.42
2023-07-10T03:38:44.020Z,84.38
2023-07-10T03:39:46.240Z,84.25
2023-07-10T03:40:53.138Z,84.07
2023-07-10T03:41:55.741Z,84.24
2023-07-10T03:42:58.237Z,84.40
2023-07-10T03:44:01.865Z,84.29
2023-07-10T03:45:04.952Z,83.94
2023-07-10T03:46:07.737Z,84.22
2023-07-10T03:47:10.805Z,83.79
2023-07-10T03:48:13.072Z,84.11
2023-07-10T03:49:15.758Z,84.70
2023-07-10T03:50:18.578Z,84.55
2023-07-10T03:51:21.588Z,84.11
2023-07-10T03:52:24.509Z,83.48
2023-07-10T03:53:29.479Z,82.64
2023-07-10T03:54:36.603Z,82.32
2023-07-10T03:55:51.256Z,82.69
2023-07-10T03:56:53.871Z,82.44
2023-07-10T03:57:56.042Z,82.11
2023-07-10T03:58:58.973Z,82.52
2023-07-10T04:00:01.489Z,82.32
2023-07-10T04:01:04.219Z,81.58
2023-07-10T04:02:06.861Z,81.88
2023-07-10T04:03:09.405Z,81.22
2023-07-10T04:04:11.829Z,80.68
2023-07-10T04:05:14.203Z,79.95
2023-07-10T04:06:18.315Z,79.68
2023-07-10T04:07:21.701Z,79.15
2023-07-10T04:08:30.353Z,79.03
2023-07-10T04:09:33.020Z,80.42
2023-07-10T04:10:36.749Z,79.44
2023-07-10T04:11:39.285Z,77.58
2023-07-10T04:12:43.440Z,77.60
2023-07-10T04:13:47.744Z,77.43
2023-07-10T04:14:50.153Z,77.28
2023-07-10T04:16:01.297Z,77.72
2023-07-10T04:17:06.958Z,77.14
2023-07-10T04:18:10.540Z,76.47
2023-07-10T04:19:12.698Z,76.10
2023-07-10T04:20:15.282Z,75.69
2023-07-10T04:21:27.056Z,75.33
2023-07-10T04:22:29.402Z,75.53
2023-07-10T04:23:32.284Z,75.29
2023-07-10T04:24:36.468Z,74.96
2023-07-10T04:25:39.301Z,75.22
2023-07-10T04:26:41.958Z,74.62
2023-07-10T04:27:44.332Z,74.54
2023-07-10T04:28:48.943Z,74.65
2023-07-10T04:29:51.432Z,75.66
2023-07-10T04:30:54.591Z,73.43
2023-07-10T04:31:56.828Z,73.43
2023-07-10T04:32:59.194Z,73.53
2023-07-10T04:34:01.883Z,73.24
2023-07-10T04:35:04.967Z,72.99
2023-07-10T04:36:08.627Z,72.72
2023-07-10T04:37:10.969Z,72.93
2023-07-10T04:38:14.347Z,72.67
2023-07-10T04:39:16.923Z,72.07
2023-07-10T04:40:19.177Z,71.72
2023-07-10T04:41:23.842Z,72.12
2023-07-10T04:42:26.226Z,71.73
2023-07-10T04:45:04.829Z,70.90
2023-07-10T04:46:11.176Z,71.55
2023-07-10T04:47:13.509Z,70.84
2023-07-10T04:48:16.081Z,71.99
2023-07-10T04:49:20.288Z,71.99
2023-07-10T04:50:23.044Z,70.42
2023-07-10T04:51:26.489Z,70.58
2023-07-10T04:52:29.045Z,69.56
2023-07-10T04:53:33.321Z,69.56
2023-07-10T04:54:37.047Z,70.16
2023-07-10T04:55:39.426Z,69.37
2023-07-10T04:56:42.390Z,69.00
2023-07-10T04:57:44.952Z,69.63
2023-07-10T04:58:53.417Z,69.46
2023-07-10T04:59:55.923Z,70.06
2023-07-10T05:01:00.300Z,70.18
2023-07-10T05:02:03.910Z,70.21
2023-07-10T05:03:07.169Z,69.87
2023-07-10T05:04:10.720Z,69.65
2023-07-10T05:05:13.239Z,69.69
2023-07-10T05:06:16.215Z,69.55
2023-07-10T05:07:18.707Z,69.40
2023-07-10T05:08:22.994Z,69.98
2023-07-10T05:09:25.299Z,71.21
2023-07-10T05:10:28.970Z,70.65
2023-07-10T05:11:32.392Z,70.70
2023-07-10T05:12:35.111Z,69.44
2023-07-10T05:13:37.573Z,69.64
2023-07-10T05:14:40.169Z,70.17
2023-07-10T05:15:42.336Z,70.18
2023-07-10T05:16:45.516Z,68.75
2023-07-10T05:17:48.404Z,69.61
2023-07-10T05:18:50.672Z,69.46
2023-07-10T05:19:54.098Z,69.39
2023-07-10T05:20:59.142Z,69.95
2023-07-10T05:22:02.621Z,70.46
2023-07-10T05:23:04.985Z,69.65
2023-07-10T05:24:08.526Z,69.94
2023-07-10T05:25:11.151Z,69.12
2023-07-10T05:26:16.709Z,67.50
2023-07-10T05:27:18.761Z,67.45
2023-07-10T05:28:20.911Z,68.33
2023-07-10T05:29:23.721Z,68.08
2023-07-10T05:30:26.098Z,68.00
2023-07-10T05:31:28.427Z,68.68
2023-07-10T05:32:31.382Z,68.01
2023-07-10T05:33:34.011Z,67.89
2023-07-10T05:34:36.513Z,67.75
2023-07-10T05:35:42.427Z,68.17
2023-07-10T05:36:46.050Z,68.30
2023-07-10T05:37:49.694Z,67.55
2023-07-10T05:38:53.574Z,67.90
2023-07-10T05:39:57.221Z,67.72
2023-07-10T05:41:00.594Z,66.44
2023-07-10T05:42:03.437Z,66.96
2023-07-10T05:43:05.775Z,67.86
2023-07-10T05:44:08.281Z,68.34
2023-07-10T05:45:11.861Z,66.44
2023-07-10T05:46:16.619Z,67.75
2023-07-10T05:47:20.211Z,68.75
2023-07-10T05:48:22.950Z,67.85
2023-07-10T05:49:26.352Z,68.14
2023-07-10T05:50:29.848Z,68.04
2023-07-10T05:51:32.251Z,66.98
2023-07-10T05:52:34.640Z,67.34
2023-07-10T05:53:37.858Z,67.52
2023-07-10T05:54:41.419Z,66.99
2023-07-10T05:55:48.483Z,68.12
2023-07-10T05:56:52.629Z,67.82
2023-07-10T05:57:55.401Z,68.14
2023-07-10T05:58:57.623Z,68.03
2023-07-10T05:59:59.907Z,67.56
2023-07-10T06:01:03.452Z,67.65
2023-07-10T06:02:11.396Z,66.60
2023-07-10T06:03:15.254Z,67.31
2023-07-10T06:04:27.281Z,66.26
2023-07-10T06:05:25.198Z,66.08
2023-07-10T06:06:28.591Z,65.50
2023-07-10T06:07:31.892Z,64.25
2023-07-10T06:08:37.050Z,64.27
2023-07-10T06:09:40.119Z,64.88
2023-07-10T06:10:42.775Z,64.65
2023-07-10T06:11:46.270Z,63.82
2023-07-10T06:12:48.609Z,63.54
2023-07-10T06:13:51.282Z,63.48
2023-07-10T06:14:54.517Z,63.68
2023-07-10T06:16:00.409Z,63.90
2023-07-10T06:17:02.854Z,64.15
2023-07-10T06:18:05.301Z,63.70
2023-07-10T06:19:07.666Z,63.89
2023-07-10T06:20:11.128Z,64.41
2023-07-10T06:21:14.541Z,63.01
2023-07-10T06:22:16.788Z,63.52
2023-07-10T06:23:20.634Z,63.19
2023-07-10T06:24:23.024Z,62.65
2023-07-10T06:25:25.394Z,62.35
2023-07-10T06:26:28.591Z,63.37
2023-07-10T06:27:31.272Z,63.85
2023-07-10T06:28:35.722Z,63.43
2023-07-10T06:29:38.702Z,63.23
2023-07-10T06:30:48.130Z,63.08
2023-07-10T06:31:51.186Z,61.93
2023-07-10T06:32:54.810Z,62.46
2023-07-10T06:33:58.270Z,62.11
2023-07-10T06:35:00.733Z,60.92
2023-07-10T06:36:05.337Z,61.82
2023-07-10T06:37:09.195Z,62.30
2023-07-10T06:38:11.927Z,62.65
2023-07-10T06:39:14.789Z,61.47
2023-07-10T06:40:17.444Z,61.23
2023-07-10T06:41:20.537Z,61.76
2023-07-10T06:42:22.938Z,60.82
2023-07-10T06:43:26.323Z,58.79
2023-07-10T06:44:28.857Z,61.18
2023-07-10T06:45:31.131Z,61.18
2023-07-10T06:46:34.109Z,61.35
2023-07-10T06:47:42.152Z,61.75
2023-07-10T06:48:45.826Z,61.77
2023-07-10T06:49:48.097Z,61.77
2023-07-10T06:50:55.202Z,61.67
2023-07-10T06:51:57.352Z,60.23
2023-07-10T06:53:05.414Z,60.87
2023-07-10T06:54:04.492Z,61.31
2023-07-10T06:55:09.885Z,61.43
2023-07-10T06:56:13.614Z,60.59
2023-07-10T06:57:16.579Z,60.59
2023-07-10T06:58:19.465Z,60.98
2023-07-10T06:59:22.195Z,59.91
2023-07-10T07:00:25.408Z,59.90
2023-07-10T07:01:27.871Z,59.81
2023-07-10T07:02:30.814Z,58.88
2023-07-10T07:03:34.305Z,58.88
2023-07-10T07:04:37.104Z,59.00
2023-07-10T07:05:43.272Z,58.63
2023-07-10T07:06:47.786Z,59.31
2023-07-10T07:07:51.258Z,59.60
2023-07-10T07:08:53.773Z,59.42
2023-07-10T07:09:57.069Z,59.63
2023-07-10T07:11:00.510Z,59.68
2023-07-10T07:12:02.831Z,59.97
2023-07-10T07:13:05.589Z,60.27
2023-07-10T07:14:07.961Z,59.64
2023-07-10T07:15:12.343Z,60.11
2023-07-10T07:16:15.054Z,59.99
2023-07-10T07:17:18.216Z,60.57
2023-07-10T07:18:26.680Z,60.09
2023-07-10T07:19:28.845Z,59.31
2023-07-10T07:20:34.796Z,59.71
2023-07-10T07:21:37.379Z,59.10
2023-07-10T07:22:42.358Z,59.65
2023-07-10T07:23:49.704Z,59.96
2023-07-10T07:24:53.232Z,59.97
2023-07-10T07:25:58.216Z,59.25
2023-07-10T07:27:00.869Z,59.42
2023-07-10T07:28:04.219Z,59.79
2023-07-10T07:29:06.734Z,59.23
2023-07-10T07:30:11.688Z,59.23
2023-07-10T07:31:14.241Z,58.82
2023-07-10T07:32:16.690Z,59.57
2023-07-10T07:33:20.914Z,59.41
2023-07-10T07:34:24.440Z,59.30
2023-07-10T07:35:28.178Z,58.10
2023-07-10T07:36:32.661Z,59.09
2023-07-10T07:37:35.470Z,59.06
2023-07-10T07:38:37.910Z,59.01
2023-07-10T07:39:41.198Z,58.46
2023-07-10T07:40:44.001Z,59.25
2023-07-10T07:41:46.690Z,59.15
2023-07-10T07:42:49.196Z,59.26
2023-07-10T07:43:51.570Z,59.86
2023-07-10T07:44:55.393Z,59.87
2023-07-10T07:45:58.880Z,58.97
2023-07-10T07:47:01.692Z,59.52
2023-07-10T07:48:04.852Z,58.90
2023-07-10T07:49:07.226Z,58.50
2023-07-10T07:50:10.692Z,59.33
2023-07-10T07:51:13.442Z,58.86
2023-07-10T07:52:15.739Z,57.93
2023-07-10T07:53:19.084Z,57.32
2023-07-10T07:54:22.486Z,56.99
2023-07-10T07:55:24.936Z,57.35
2023-07-10T07:56:28.438Z,57.55
2023-07-10T07:57:31.280Z,56.81
2023-07-10T07:58:34.262Z,56.67
2023-07-10T07:59:36.593Z,57.06
2023-07-10T08:00:40.137Z,57.45
2023-07-10T08:01:44.996Z,57.03
2023-07-10T08:02:47.498Z,55.75
2023-07-10T08:03:50.531Z,55.53
2023-07-10T08:04:54.170Z,54.77
2023-07-10T08:05:56.946Z,55.16
2023-07-10T08:06:59.218Z,54.71
2023-07-10T08:08:01.742Z,54.34
2023-07-10T08:09:04.502Z,53.57
2023-07-10T08:10:08.885Z,54.76
2023-07-10T08:11:11.401Z,54.50
2023-07-10T08:12:13.683Z,53.03
2023-07-10T08:13:17.852Z,53.97
2023-07-10T08:14:20.642Z,54.08
2023-07-10T08:15:22.985Z,54.51
2023-07-10T08:16:25.719Z,54.77
2023-07-10T08:17:28.113Z,55.02
2023-07-10T08:18:30.471Z,54.80
2023-07-10T08:19:32.822Z,54.62
2023-07-10T08:20:37.014Z,54.34
2023-07-10T08:21:39.506Z,54.34
2023-07-10T08:22:42.359Z,53.86
2023-07-10T08:23:44.781Z,53.91
2023-07-10T08:24:46.912Z,53.92
2023-07-10T08:25:49.100Z,53.29
2023-07-10T08:26:52.153Z,53.35
2023-07-10T08:27:55.181Z,53.75
2023-07-10T08:28:57.504Z,53.90
2023-07-10T08:30:01.677Z,52.78
2023-07-10T08:31:05.035Z,54.12
2023-07-10T08:32:08.940Z,52.50
2023-07-10T08:33:11.697Z,52.31
2023-07-10T08:34:14.252Z,51.15
2023-07-10T08:35:16.671Z,51.17
2023-07-10T08:36:20.128Z,50.42
2023-07-10T08:37:22.465Z,50.51
2023-07-10T08:38:25.033Z,51.89
2023-07-10T08:39:27.997Z,51.33
2023-07-10T08:40:33.340Z,51.72
2023-07-10T08:41:35.878Z,51.79
2023-07-10T08:42:40.349Z,51.16
2023-07-10T08:43:44.817Z,51.53
2023-07-10T08:44:50.052Z,52.15
2023-07-10T08:45:56.119Z,51.70
2023-07-10T08:47:02.317Z,51.60
2023-07-10T08:49:39.596Z,52.56
2023-07-10T08:50:43.837Z,52.41
2023-07-10T08:51:55.436Z,52.12
2023-07-10T08:53:13.440Z,51.87
2023-07-10T08:54:19.150Z,51.23
2023-07-10T08:55:28.607Z,51.22
2023-07-10T08:56:35.927Z,51.48
2023-07-10T08:58:41.751Z,50.80
2023-07-10T08:59:53.590Z,51.14
2023-07-10T09:00:59.750Z,51.37
2023-07-10T09:02:03.561Z,51.50
2023-07-10T09:03:09.702Z,51.57
2023-07-10T09:04:15.513Z,51.47
2023-07-10T09:05:24.711Z,52.08
2023-07-10T09:06:40.905Z,52.18
2023-07-10T09:07:45.143Z,52.44
2023-07-10T09:08:51.288Z,52.16
2023-07-10T09:09:57.699Z,51.75
2023-07-10T09:11:04.229Z,51.76
2023-07-10T09:12:18.292Z,51.47
2023-07-10T09:13:43.945Z,50.64
2023-07-10T09:14:55.959Z,50.39
2023-07-10T09:16:00.489Z,48.80
2023-07-10T09:17:06.011Z,49.83
2023-07-10T09:18:27.281Z,49.57
2023-07-10T09:19:32.555Z,49.66
2023-07-10T09:20:37.137Z,49.59
2023-07-10T09:21:42.005Z,49.02
2023-07-10T09:22:48.925Z,49.94
2023-07-10T09:23:52.700Z,49.68
2023-07-10T09:24:55.268Z,50.77
2023-07-10T09:26:04.894Z,51.34
2023-07-10T09:27:11.631Z,51.22
2023-07-10T09:28:14.313Z,51.01
2023-07-10T09:29:26.740Z,51.12
2023-07-10T09:30:42.829Z,50.89
2023-07-10T09:31:58.085Z,51.29
2023-07-10T09:33:06.526Z,50.57
2023-07-10T09:34:11.632Z,49.66
2023-07-10T09:35:19.666Z,49.19
2023-07-10T09:36:22.565Z,49.21
2023-07-10T09:37:37.088Z,49.15
2023-07-10T09:38:42.859Z,49.84
2023-07-10T09:39:45.477Z,50.76
2023-07-10T09:40:50.894Z,50.37
2023-07-10T09:41:53.750Z,50.27
2023-07-10T09:42:59.635Z,50.90
2023-07-10T09:44:18.339Z,51.38
2023-07-10T09:45:22.804Z,51.97
2023-07-10T09:46:31.259Z,51.93
2023-07-10T09:47:39.610Z,51.92
2023-07-10T09:48:41.976Z,52.73
2023-07-10T09:49:48.354Z,52.85
2023-07-10T09:50:53.836Z,53.57
2023-07-10T09:51:59.926Z,53.03
2023-07-10T09:53:02.379Z,53.02
2023-07-10T09:54:08.227Z,52.89
2023-07-10T09:55:16.766Z,52.16
2023-07-10T09:56:29.094Z,50.01
2023-07-10T09:57:31.843Z,49.61
2023-07-10T09:58:38.470Z,48.17
2023-07-10T09:59:53.465Z,47.77
2023-07-10T10:01:01.313Z,48.46
2023-07-10T10:02:16.713Z,48.41
2023-07-10T10:03:27.716Z,48.42
2023-07-10T10:04:34.806Z,48.89
2023-07-10T10:05:40.561Z,48.51
2023-07-10T10:06:44.889Z,48.28
2023-07-10T10:07:52.573Z,48.37
2023-07-10T10:08:55.903Z,47.29
2023-07-10T10:11:47.696Z,47.50
2023-07-10T10:13:05.993Z,47.54
2023-07-10T10:14:14.278Z,47.96
2023-07-10T10:15:33.296Z,47.74
2023-07-10T10:16:48.354Z,47.16
2023-07-10T10:17:51.600Z,47.60
2023-07-10T10:20:42.251Z,48.10
2023-07-10T10:21:46.002Z,47.75
2023-07-10T10:22:49.061Z,48.55
2023-07-10T10:23:55.074Z,47.92
2023-07-10T10:24:57.551Z,47.52
2023-07-10T10:26:20.295Z,47.45
2023-07-10T10:27:30.035Z,45.61
2023-07-10T10:28:43.016Z,46.11
2023-07-10T10:31:15.433Z,45.13
2023-07-10T10:32:36.756Z,46.20
2023-07-10T10:33:42.806Z,44.04
2023-07-10T10:34:55.866Z,45.09
2023-07-10T10:36:01.572Z,44.73
2023-07-10T10:37:29.425Z,45.02
2023-07-10T10:38:41.244Z,45.43
2023-07-10T10:39:47.769Z,44.92
2023-07-10T10:41:01.746Z,45.30
2023-07-10T10:43:22.148Z,44.91
2023-07-10T10:44:34.247Z,45.38
2023-07-10T10:45:46.062Z,44.60
2023-07-10T10:47:07.580Z,44.11
2023-07-10T10:48:29.828Z,44.66
2023-07-10T10:49:56.346Z,43.90
2023-07-10T10:51:05.351Z,43.20
2023-07-10T10:52:20.620Z,44.01
2023-07-10T10:53:36.601Z,43.59
2023-07-10T10:55:01.050Z,43.49
2023-07-10T10:56:22.549Z,43.97
2023-07-10T10:57:35.556Z,44.18
2023-07-10T10:58:45.331Z,43.59
2023-07-10T11:00:06.555Z,43.17
2023-07-10T11:01:15.701Z,43.09
2023-07-10T11:02:38.680Z,43.55
2023-07-10T11:03:50.759Z,42.80
2023-07-10T11:04:59.590Z,43.27
2023-07-10T11:06:25.761Z,43.52
2023-07-10T11:08:43.746Z,42.94
2023-07-10T11:09:52.753Z,42.60
2023-07-10T11:10:58.036Z,42.82
2023-07-10T11:12:03.971Z,42.80
2023-07-10T11:13:10.409Z,42.37
2023-07-10T11:14:13.646Z,42.62
2023-07-10T11:15:19.377Z,43.13
2023-07-10T11:16:23.568Z,43.14
2023-07-10T11:17:26.857Z,42.52
2023-07-10T11:18:30.071Z,41.55
2023-07-10T11:19:33.844Z,41.55
2023-07-10T11:20:37.488Z,39.55
2023-07-10T11:21:41.921Z,40.70
2023-07-10T11:24:17.614Z,40.76
2023-07-10T11:25:29.193Z,40.75
2023-07-10T11:26:32.218Z,41.44
2023-07-10T11:27:37.542Z,41.09
2023-07-10T11:29:07.601Z,41.12
2023-07-10T11:30:16.332Z,40.65
2023-07-10T11:31:31.710Z,41.42
2023-07-10T11:32:38.229Z,41.76
2023-07-10T11:33:43.714Z,42.30
2023-07-10T11:34:50.206Z,41.77
2023-07-10T11:36:14.039Z,41.31
2023-07-10T11:37:37.545Z,41.58
2023-07-10T11:39:00.680Z,40.14
2023-07-10T11:40:26.563Z,40.24
2023-07-10T11:41:32.136Z,40.54
2023-07-10T11:42:34.903Z,40.34
2023-07-10T11:43:41.224Z,40.16
2023-07-10T11:44:48.411Z,40.00
2023-07-10T11:47:11.905Z,38.77
2023-07-10T11:48:34.995Z,39.98
2023-07-10T11:49:57.567Z,40.10
2023-07-10T11:51:03.405Z,40.81
2023-07-10T11:52:17.762Z,41.33
2023-07-10T11:53:24.461Z,41.12
2023-07-10T11:54:38.554Z,41.37
2023-07-10T11:55:56.846Z,41.64
2023-07-10T11:57:11.637Z,41.81
2023-07-10T11:59:51.463Z,40.95
2023-07-10T12:01:02.195Z,40.90
2023-07-10T12:03:30.294Z,41.27
2023-07-10T12:04:32.670Z,41.19
2023-07-10T12:05:38.918Z,41.55
2023-07-10T12:06:46.498Z,40.58
2023-07-10T12:08:08.046Z,40.66
2023-07-10T12:09:11.319Z,40.68
2023-07-10T12:10:14.940Z,41.61
2023-07-10T12:11:36.300Z,41.48
2023-07-10T12:12:38.689Z,41.78
2023-07-10T12:13:41.540Z,43.11
2023-07-10T12:14:45.219Z,44.19
2023-07-10T12:15:50.185Z,44.39
2023-07-10T12:17:18.399Z,44.36
2023-07-10T12:18:01.252Z,44.56
2023-07-10T12:19:16.916Z,43.43
2023-07-10T12:20:29.351Z,44.26
2023-07-10T12:21:31.551Z,43.64
2023-07-10T12:22:37.706Z,42.65
2023-07-10T12:24:00.943Z,42.78
2023-07-10T12:25:08.321Z,42.52
2023-07-10T12:26:14.824Z,41.69
2023-07-10T12:28:17.990Z,41.54
2023-07-10T12:28:28.527Z,40.26
2023-07-10T12:29:31.181Z,39.89
2023-07-10T12:30:34.828Z,40.69
2023-07-10T12:31:39.699Z,39.67
2023-07-10T12:32:43.828Z,39.82
2023-07-10T12:33:50.192Z,40.53
2023-07-10T12:34:55.338Z,41.17
2023-07-10T12:36:05.512Z,41.84
2023-07-10T12:37:10.854Z,41.83
2023-07-10T12:38:13.580Z,41.94
2023-07-10T12:39:16.284Z,42.30
2023-07-10T12:40:19.701Z,43.19
2023-07-10T12:41:24.874Z,43.77
2023-07-10T12:42:33.609Z,46.13
2023-07-10T12:43:36.400Z,54.61
2023-07-10T12:44:42.713Z,63.54
2023-07-10T12:45:45.615Z,69.79
2023-07-10T12:46:57.324Z,71.19
2023-07-10T12:48:15.015Z,77.40
2023-07-10T12:49:20.193Z,82.04
2023-07-10T12:50:26.299Z,86.56
2023-07-10T12:51:33.007Z,86.62
2023-07-10T12:52:40.670Z,91.69
2023-07-10T12:53:44.395Z,94.55
2023-07-10T12:54:50.622Z,92.20
2023-07-10T12:56:08.881Z,91.60
2023-07-10T12:57:01.576Z,87.94
2023-07-10T12:58:05.284Z,83.69
2023-07-10T12:59:14.965Z,86.26
2023-07-10T13:00:19.633Z,86.36
2023-07-10T13:01:26.246Z,82.73
2023-07-10T13:02:32.551Z,81.97
2023-07-10T13:03:35.963Z,81.76
2023-07-10T13:04:44.271Z,79.68
2023-07-10T13:05:52.424Z,80.60
2023-07-10T13:07:28.481Z,78.34
2023-07-10T13:08:14.595Z,73.63
2023-07-10T13:09:23.917Z,74.85
2023-07-10T13:10:32.042Z,72.97
2023-07-10T13:12:41.206Z,68.66
2023-07-10T13:13:45.433Z,66.02
2023-07-10T13:14:48.617Z,63.48
2023-07-10T13:15:50.909Z,64.97
2023-07-10T13:16:53.722Z,61.98
2023-07-10T13:17:57.319Z,61.86
2023-07-10T13:18:59.879Z,61.90
2023-07-10T13:20:09.748Z,60.32
2023-07-10T13:21:12.306Z,62.12
2023-07-10T13:22:15.043Z,57.24
2023-07-10T13:23:18.157Z,57.95
2023-07-10T13:24:20.558Z,59.17
2023-07-10T13:25:24.237Z,58.02
2023-07-10T13:26:26.693Z,54.93
2023-07-10T13:27:29.058Z,53.40
2023-07-10T13:28:48.443Z,53.56
2023-07-10T13:29:36.452Z,52.63
2023-07-10T13:30:38.976Z,50.83
2023-07-10T13:31:42.891Z,49.25
2023-07-10T13:32:46.676Z,50.12
2023-07-10T13:33:49.770Z,46.19
2023-07-10T13:34:52.497Z,44.92
2023-07-10T13:35:58.205Z,42.60
2023-07-10T13:37:01.253Z,42.60
2023-07-10T13:38:08.149Z,45.46
2023-07-10T13:39:14.158Z,45.88
2023-07-10T13:40:23.248Z,46.04
2023-07-10T13:41:28.509Z,47.44
2023-07-10T13:42:30.843Z,47.41
2023-07-10T13:43:33.667Z,48.05
2023-07-10T13:44:36.013Z,49.95
2023-07-10T13:45:39.794Z,48.90
2023-07-10T13:46:45.706Z,48.86
2023-07-10T13:47:50.293Z,47.26
2023-07-10T13:48:55.950Z,45.91
2023-07-10T13:50:00.141Z,45.20
2023-07-10T13:51:02.365Z,44.23
2023-07-10T13:52:06.700Z,42.93
2023-07-10T13:53:15.288Z,43.04
2023-07-10T13:54:18.899Z,40.47
2023-07-10T13:55:23.282Z,40.93
2023-07-10T13:56:29.534Z,39.07
2023-07-10T13:57:31.878Z,40.06
2023-07-10T13:58:34.027Z,38.81
2023-07-10T13:59:37.380Z,41.63
2023-07-10T14:00:40.011Z,42.80
2023-07-10T14:01:42.735Z,41.08
2023-07-10T14:02:47.832Z,41.21
2023-07-10T14:03:50.769Z,42.77
2023-07-10T14:04:59.955Z,43.53
2023-07-10T14:06:02.923Z,44.19
2023-07-10T14:07:08.909Z,44.94
2023-07-10T14:08:24.187Z,45.92
2023-07-10T14:09:30.076Z,46.61
2023-07-10T14:10:35.151Z,46.52
2023-07-10T14:11:38.928Z,46.59
2023-07-10T14:12:42.665Z,46.24
2023-07-10T14:13:45.795Z,45.83
2023-07-10T14:14:49.201Z,46.55
2023-07-10T14:16:00.966Z,45.93
2023-07-10T14:17:05.582Z,46.05
2023-07-10T14:18:18.771Z,47.02
2023-07-10T14:19:23.943Z,47.49
2023-07-10T14:20:30.885Z,48.76
2023-07-10T14:21:34.380Z,49.09